createdAt,value
2019-03-25T00:00:52.769Z,955.79
2019-03-25T00:01:52.755Z,955.78
2019-03-25T00:02:52.737Z,955.79
2019-03-25T00:03:52.723Z,955.78
2019-03-25T00:04:52.707Z,955.8
2019-03-25T00:05:52.690Z,955.76
2019-03-25T00:06:52.674Z,955.76
2019-03-25T00:07:52.660Z,955.78
2019-03-25T00:09:03.515Z,955.79
2019-03-25T00:09:52.629Z,955.79
2019-03-25T00:10:52.614Z,955.78
2019-03-25T00:11:52.599Z,955.76
2019-03-25T00:12:52.582Z,955.77
2019-03-25T00:13:52.568Z,955.79
2019-03-25T00:14:52.551Z,955.77
2019-03-25T00:15:52.537Z,955.78
2019-03-25T00:16:52.521Z,955.73
2019-03-25T00:17:52.505Z,955.73
2019-03-25T00:18:52.490Z,955.73
2019-03-25T00:19:52.474Z,955.7
2019-03-25T00:20:52.458Z,955.71
2019-03-25T00:21:52.446Z,955.66
2019-03-25T00:22:52.431Z,955.67
2019-03-25T00:23:52.413Z,955.66
2019-03-25T00:24:52.397Z,955.67
2019-03-25T00:25:52.381Z,955.68
2019-03-25T00:26:52.385Z,955.69
2019-03-25T00:27:52.356Z,955.69
2019-03-25T00:28:52.335Z,955.71
2019-03-25T00:29:52.320Z,955.7
2019-03-25T00:30:52.305Z,955.66
2019-03-25T00:31:52.288Z,955.71
2019-03-25T00:32:52.273Z,955.69
2019-03-25T00:33:52.261Z,955.69
2019-03-25T00:34:52.244Z,955.7
2019-03-25T00:35:52.226Z,955.68
2019-03-25T00:36:52.212Z,955.65
2019-03-25T00:37:52.196Z,955.66
2019-03-25T00:38:52.181Z,955.64
2019-03-25T00:39:52.164Z,955.62
2019-03-25T00:40:52.149Z,955.62
2019-03-25T00:41:52.134Z,955.63
2019-03-25T00:42:52.124Z,955.61
2019-03-25T00:43:52.102Z,955.62
2019-03-25T00:44:52.088Z,955.64
2019-03-25T00:45:52.073Z,955.58
2019-03-25T00:46:52.056Z,955.55
2019-03-25T00:47:52.041Z,955.54
2019-03-25T00:48:52.026Z,955.48
2019-03-25T00:49:52.009Z,955.49
2019-03-25T00:50:51.994Z,955.48
2019-03-25T00:51:51.978Z,955.48
2019-03-25T00:52:51.963Z,955.44
2019-03-25T00:53:51.947Z,955.44
2019-03-25T00:54:51.931Z,955.38
2019-03-25T00:55:51.922Z,955.42
2019-03-25T00:56:51.901Z,955.37
2019-03-25T00:57:51.884Z,955.34
2019-03-25T00:58:51.869Z,955.35
2019-03-25T00:59:51.855Z,955.39
2019-03-25T01:00:51.839Z,955.32
2019-03-25T01:01:51.821Z,955.32
2019-03-25T01:02:51.807Z,955.29
2019-03-25T01:03:51.790Z,955.36
2019-03-25T01:04:51.773Z,955.32
2019-03-25T01:05:51.758Z,955.33
2019-03-25T01:06:51.742Z,955.36
2019-03-25T01:07:51.726Z,955.32
2019-03-25T01:08:51.710Z,955.25
2019-03-25T01:09:51.694Z,955.27
2019-03-25T01:10:51.679Z,955.23
2019-03-25T01:11:51.663Z,955.23
2019-03-25T01:12:51.646Z,955.18
2019-03-25T01:13:51.632Z,955.2
2019-03-25T01:14:51.615Z,955.29
2019-03-25T01:15:51.599Z,955.2
2019-03-25T01:16:51.583Z,955.23
2019-03-25T01:17:51.567Z,955.21
2019-03-25T01:18:51.550Z,955.22
2019-03-25T01:19:51.534Z,955.2
2019-03-25T01:20:51.519Z,955.21
2019-03-25T01:21:51.502Z,955.22
2019-03-25T01:22:51.485Z,955.24
2019-03-25T01:23:51.470Z,955.23
2019-03-25T01:25:01.121Z,955.24
2019-03-25T01:25:51.438Z,955.19
2019-03-25T01:26:51.421Z,955.19
2019-03-25T01:27:51.405Z,955.19
2019-03-25T01:28:51.390Z,955.2
2019-03-25T01:29:51.374Z,955.2
2019-03-25T01:30:51.357Z,955.15
2019-03-25T01:31:51.345Z,955.16
2019-03-25T01:32:51.325Z,955.14
2019-03-25T01:33:51.308Z,955.09
2019-03-25T01:34:51.295Z,955.11
2019-03-25T01:35:51.276Z,955.1
2019-03-25T01:36:51.260Z,955.1
2019-03-25T01:37:51.242Z,955.1
2019-03-25T01:38:51.227Z,955.08
2019-03-25T01:39:51.211Z,955.07
2019-03-25T01:40:51.194Z,955.03
2019-03-25T01:41:51.178Z,955.09
2019-03-25T01:42:51.162Z,955.05
2019-03-25T01:43:51.145Z,955.04
2019-03-25T01:44:51.128Z,955.04
2019-03-25T01:45:51.116Z,955.06
2019-03-25T01:46:51.096Z,954.99
2019-03-25T01:47:51.079Z,955.01
2019-03-25T01:48:51.062Z,954.98
2019-03-25T01:49:51.047Z,954.98
2019-03-25T01:50:51.030Z,954.96
2019-03-25T01:51:51.018Z,954.94
2019-03-25T01:52:50.997Z,954.91
2019-03-25T01:53:50.981Z,954.88
2019-03-25T01:54:50.965Z,954.88
2019-03-25T01:55:50.947Z,954.86
2019-03-25T01:56:50.932Z,954.84
2019-03-25T01:57:50.915Z,954.87
2019-03-25T01:58:50.898Z,954.87
2019-03-25T01:59:50.881Z,954.85
2019-03-25T02:00:50.865Z,954.81
2019-03-25T02:01:50.851Z,954.76
2019-03-25T02:02:50.832Z,954.74
2019-03-25T02:03:50.816Z,954.67
2019-03-25T02:04:50.799Z,954.68
2019-03-25T02:05:50.783Z,954.66
2019-03-25T02:06:50.765Z,954.7
2019-03-25T02:07:50.750Z,954.67
2019-03-25T02:08:50.732Z,954.71
2019-03-25T02:09:50.716Z,954.67
2019-03-25T02:10:50.704Z,954.61
2019-03-25T02:11:50.682Z,954.59
2019-03-25T02:12:50.666Z,954.6
2019-03-25T02:13:50.649Z,954.57
2019-03-25T02:14:50.636Z,954.51
2019-03-25T02:15:50.616Z,954.51
2019-03-25T02:16:50.599Z,954.5
2019-03-25T02:17:50.581Z,954.51
2019-03-25T02:18:50.565Z,954.47
2019-03-25T02:19:50.550Z,954.45
2019-03-25T02:20:50.532Z,954.48
2019-03-25T02:21:50.515Z,954.51
2019-03-25T02:22:50.701Z,954.46
2019-03-25T02:23:50.482Z,954.44
2019-03-25T02:24:50.469Z,954.45
2019-03-25T02:25:50.450Z,954.42
2019-03-25T02:26:50.432Z,954.41
2019-03-25T02:27:50.416Z,954.4
2019-03-25T02:28:50.398Z,954.39
2019-03-25T02:29:50.436Z,954.41
2019-03-25T02:30:50.373Z,954.39
2019-03-25T02:31:50.348Z,954.36
2019-03-25T02:32:50.331Z,954.34
2019-03-25T02:33:50.315Z,954.35
2019-03-25T02:34:50.306Z,954.36
2019-03-25T02:35:50.281Z,954.33
2019-03-25T02:36:50.264Z,954.29
2019-03-25T02:37:50.247Z,954.29
2019-03-25T02:38:50.230Z,954.25
2019-03-25T02:39:50.221Z,954.21
2019-03-25T02:40:50.195Z,954.2
2019-03-25T02:41:50.179Z,954.17
2019-03-25T02:42:50.160Z,954.16
2019-03-25T02:43:50.146Z,954.14
2019-03-25T02:44:50.136Z,954.15
2019-03-25T02:45:50.109Z,954.17
2019-03-25T02:46:50.091Z,954.18
2019-03-25T02:47:50.075Z,954.19
2019-03-25T02:48:50.058Z,954.22
2019-03-25T02:49:50.041Z,954.23
2019-03-25T02:50:50.029Z,954.23
2019-03-25T02:51:50.006Z,954.24
2019-03-25T02:52:49.992Z,954.21
2019-03-25T02:53:49.974Z,954.17
2019-03-25T02:54:49.963Z,954.16
2019-03-25T02:55:49.937Z,954.14
2019-03-25T02:56:49.922Z,954.14
2019-03-25T02:57:49.909Z,954.14
2019-03-25T02:58:49.886Z,954.09
2019-03-25T02:59:49.871Z,954.06
2019-03-25T03:00:49.871Z,954.05
2019-03-25T03:01:49.833Z,954.05
2019-03-25T03:02:49.819Z,954.04
2019-03-25T03:03:49.799Z,954.01
2019-03-25T03:04:49.788Z,954.06
2019-03-25T03:05:49.782Z,954.06
2019-03-25T03:06:49.758Z,954.03
2019-03-25T03:07:49.731Z,953.99
2019-03-25T03:08:49.714Z,954.01
2019-03-25T03:09:49.719Z,953.95
2019-03-25T03:10:49.718Z,953.94
2019-03-25T03:11:49.662Z,953.93
2019-03-25T03:12:49.643Z,953.9
2019-03-25T03:13:49.629Z,953.88
2019-03-25T03:14:49.610Z,953.88
2019-03-25T03:15:49.592Z,953.86
2019-03-25T03:16:49.576Z,953.83
2019-03-25T03:17:49.558Z,953.84
2019-03-25T03:18:49.541Z,953.86
2019-03-25T03:19:49.540Z,953.85
2019-03-25T03:20:49.505Z,953.78
2019-03-25T03:21:49.490Z,953.76
2019-03-25T03:22:49.472Z,953.75
2019-03-25T03:23:49.457Z,953.77
2019-03-25T03:24:49.443Z,953.71
2019-03-25T03:25:56.747Z,953.73
2019-03-25T03:26:49.402Z,953.74
2019-03-25T03:27:49.386Z,953.77
2019-03-25T03:28:49.368Z,953.75
2019-03-25T03:29:49.352Z,953.78
2019-03-25T03:30:49.333Z,953.76
2019-03-25T03:31:49.329Z,953.77
2019-03-25T03:32:49.300Z,953.77
2019-03-25T03:33:49.283Z,953.78
2019-03-25T03:34:49.265Z,953.77
2019-03-25T03:35:49.248Z,953.81
2019-03-25T03:36:49.231Z,953.78
2019-03-25T03:37:49.215Z,953.76
2019-03-25T03:38:49.215Z,953.76
2019-03-25T03:39:49.186Z,953.76
2019-03-25T03:40:49.162Z,953.74
2019-03-25T03:41:49.143Z,953.71
2019-03-25T03:42:49.127Z,953.72
2019-03-25T03:43:49.139Z,953.75
2019-03-25T03:44:49.094Z,953.72
2019-03-25T03:45:49.076Z,953.69
2019-03-25T03:46:49.060Z,953.68
2019-03-25T03:47:49.042Z,953.64
2019-03-25T03:48:49.025Z,953.68
2019-03-25T03:49:49.008Z,953.65
2019-03-25T03:50:48.990Z,953.62
2019-03-25T03:51:48.974Z,953.59
2019-03-25T03:52:48.956Z,953.64
2019-03-25T03:53:48.940Z,953.6
2019-03-25T03:54:48.922Z,953.61
2019-03-25T03:55:48.907Z,953.56
2019-03-25T03:56:48.888Z,953.61
2019-03-25T03:57:48.871Z,953.61
2019-03-25T03:58:48.855Z,953.59
2019-03-25T03:59:48.853Z,953.57
2019-03-25T04:00:48.862Z,953.52
2019-03-25T04:01:48.803Z,953.49
2019-03-25T04:02:48.787Z,953.5
2019-03-25T04:03:48.770Z,953.5
2019-03-25T04:04:48.752Z,953.51
2019-03-25T04:05:48.737Z,953.46
2019-03-25T04:06:48.719Z,953.49
2019-03-25T04:07:48.699Z,953.43
2019-03-25T04:08:48.684Z,953.46
2019-03-25T04:09:48.667Z,953.49
2019-03-25T04:10:48.650Z,953.47
2019-03-25T04:11:48.631Z,953.42
2019-03-25T04:12:48.615Z,953.43
2019-03-25T04:13:48.599Z,953.44
2019-03-25T04:14:48.581Z,953.4
2019-03-25T04:15:48.565Z,953.43
2019-03-25T04:16:48.547Z,953.44
2019-03-25T04:17:48.578Z,953.4
2019-03-25T04:18:48.512Z,953.44
2019-03-25T04:19:48.505Z,953.44
2019-03-25T04:20:48.479Z,953.4
2019-03-25T04:21:48.460Z,953.44
2019-03-25T04:22:48.443Z,953.42
2019-03-25T04:23:48.427Z,953.41
2019-03-25T04:24:48.410Z,953.36
2019-03-25T04:25:48.391Z,953.36
2019-03-25T04:26:48.380Z,953.38
2019-03-25T04:27:48.357Z,953.4
2019-03-25T04:28:48.339Z,953.39
2019-03-25T04:29:48.322Z,953.34
2019-03-25T04:30:48.306Z,953.3
2019-03-25T04:31:48.290Z,953.31
2019-03-25T04:32:48.273Z,953.3
2019-03-25T04:33:48.253Z,953.34
2019-03-25T04:34:48.236Z,953.35
2019-03-25T04:35:48.220Z,953.36
2019-03-25T04:36:48.209Z,953.31
2019-03-25T04:37:48.184Z,953.35
2019-03-25T04:38:48.172Z,953.41
2019-03-25T04:39:48.150Z,953.43
2019-03-25T04:40:48.133Z,953.42
2019-03-25T04:41:48.115Z,953.42
2019-03-25T04:42:48.100Z,953.39
2019-03-25T04:43:48.097Z,953.42
2019-03-25T04:44:48.063Z,953.4
2019-03-25T04:45:48.057Z,953.44
2019-03-25T04:46:48.032Z,953.4
2019-03-25T04:47:48.012Z,953.43
2019-03-25T04:48:47.994Z,953.42
2019-03-25T04:49:47.979Z,953.39
2019-03-25T04:50:47.960Z,953.41
2019-03-25T04:51:47.942Z,953.4
2019-03-25T04:52:47.925Z,953.4
2019-03-25T04:53:47.909Z,953.4
2019-03-25T04:54:47.891Z,953.41
2019-03-25T04:55:47.872Z,953.35
2019-03-25T04:56:47.856Z,953.37
2019-03-25T04:57:47.839Z,953.41
2019-03-25T04:58:47.821Z,953.36
2019-03-25T04:59:47.804Z,953.38
2019-03-25T05:00:47.787Z,953.36
2019-03-25T05:01:47.770Z,953.37
2019-03-25T05:02:47.752Z,953.37
2019-03-25T05:03:47.736Z,953.36
2019-03-25T05:04:47.718Z,953.35
2019-03-25T05:05:47.700Z,953.35
2019-03-25T05:06:47.684Z,953.34
2019-03-25T05:07:47.665Z,953.32
2019-03-25T05:08:47.649Z,953.31
2019-03-25T05:09:47.630Z,953.32
2019-03-25T05:10:47.615Z,953.32
2019-03-25T05:11:47.596Z,953.29
2019-03-25T05:12:47.579Z,953.29
2019-03-25T05:13:47.563Z,953.24
2019-03-25T05:14:47.548Z,953.25
2019-03-25T05:15:47.528Z,953.24
2019-03-25T05:16:47.511Z,953.23
2019-03-25T05:17:47.493Z,953.31
2019-03-25T05:18:47.476Z,953.24
2019-03-25T05:19:47.459Z,953.23
2019-03-25T05:20:47.441Z,953.23
2019-03-25T05:21:47.425Z,953.18
2019-03-25T05:22:47.408Z,953.19
2019-03-25T05:23:47.389Z,953.22
2019-03-25T05:24:47.376Z,953.19
2019-03-25T05:25:47.355Z,953.15
2019-03-25T05:26:51.135Z,953.08
2019-03-25T05:27:47.320Z,953.08
2019-03-25T05:28:47.303Z,953.02
2019-03-25T05:29:47.286Z,952.97
2019-03-25T05:30:47.269Z,952.98
2019-03-25T05:31:47.252Z,952.96
2019-03-25T05:32:47.236Z,952.93
2019-03-25T05:33:47.219Z,952.84
2019-03-25T05:34:47.200Z,952.89
2019-03-25T05:35:47.184Z,952.86
2019-03-25T05:36:47.167Z,952.84
2019-03-25T05:37:47.152Z,952.85
2019-03-25T05:38:47.133Z,952.79
2019-03-25T05:39:47.114Z,952.75
2019-03-25T05:40:47.098Z,952.72
2019-03-25T05:41:47.080Z,952.7
2019-03-25T05:42:47.063Z,952.6
2019-03-25T05:43:47.046Z,952.6
2019-03-25T05:44:47.030Z,952.43
2019-03-25T05:45:47.012Z,952.35
2019-03-25T05:46:46.996Z,952.34
2019-03-25T05:47:46.981Z,952.36
2019-03-25T05:48:46.960Z,952.34
2019-03-25T05:49:46.942Z,952.26
2019-03-25T05:50:46.926Z,952.23
2019-03-25T05:51:46.925Z,952.21
2019-03-25T05:52:46.891Z,952.18
2019-03-25T05:53:46.874Z,952.02
2019-03-25T05:54:46.858Z,951.97
2019-03-25T05:55:46.840Z,951.93
2019-03-25T05:56:46.823Z,951.96
2019-03-25T05:57:46.806Z,951.96
2019-03-25T05:58:46.789Z,951.97
2019-03-25T05:59:46.772Z,951.9
2019-03-25T06:00:46.755Z,951.94
2019-03-25T06:01:46.739Z,951.92
2019-03-25T06:02:46.721Z,951.84
2019-03-25T06:03:46.702Z,951.78
2019-03-25T06:04:46.686Z,951.76
2019-03-25T06:05:46.669Z,951.68
2019-03-25T06:06:46.651Z,951.77
2019-03-25T06:07:46.636Z,951.88
2019-03-25T06:08:46.620Z,951.96
2019-03-25T06:09:46.600Z,952.09
2019-03-25T06:10:46.584Z,952.22
2019-03-25T06:11:46.567Z,952.25
2019-03-25T06:12:46.550Z,952.26
2019-03-25T06:13:46.532Z,952.24
2019-03-25T06:14:46.523Z,952.27
2019-03-25T06:15:46.499Z,952.29
2019-03-25T06:16:46.481Z,952.27
2019-03-25T06:17:46.464Z,952.27
2019-03-25T06:18:46.448Z,952.29
2019-03-25T06:19:46.430Z,952.21
2019-03-25T06:20:46.416Z,952.3
2019-03-25T06:21:46.398Z,952.27
2019-03-25T06:22:46.379Z,952.21
2019-03-25T06:23:46.366Z,952.2
2019-03-25T06:24:46.347Z,952.22
2019-03-25T06:25:46.329Z,952.26
2019-03-25T06:26:46.312Z,952.23
2019-03-25T06:27:46.298Z,952.19
2019-03-25T06:28:46.286Z,952.21
2019-03-25T06:29:46.265Z,952.21
2019-03-25T06:30:46.247Z,952.16
2019-03-25T06:31:46.228Z,952.16
2019-03-25T06:32:46.212Z,952.17
2019-03-25T06:33:46.194Z,952.14
2019-03-25T06:34:46.178Z,952.11
2019-03-25T06:35:46.162Z,952.14
2019-03-25T06:36:46.146Z,952.18
2019-03-25T06:37:46.128Z,952.07
2019-03-25T06:38:46.111Z,952.05
2019-03-25T06:39:46.094Z,952.03
2019-03-25T06:40:46.077Z,952.03
2019-03-25T06:41:46.061Z,952.09
2019-03-25T06:42:46.045Z,952.08
2019-03-25T06:43:46.030Z,952.09
2019-03-25T06:44:46.010Z,952.05
2019-03-25T06:45:45.995Z,952.12
2019-03-25T06:46:45.977Z,952.08
2019-03-25T06:47:45.960Z,952.07
2019-03-25T06:48:45.943Z,952.04
2019-03-25T06:49:45.927Z,952.05
2019-03-25T06:50:45.910Z,952.07
2019-03-25T06:51:45.893Z,952.04
2019-03-25T06:52:45.877Z,952.05
2019-03-25T06:53:45.860Z,952.11
2019-03-25T06:54:45.846Z,952.12
2019-03-25T06:55:45.826Z,952.15
2019-03-25T06:56:45.811Z,952.19
2019-03-25T06:57:45.795Z,952.15
2019-03-25T06:58:45.778Z,952.15
2019-03-25T06:59:45.761Z,952.14
2019-03-25T07:00:45.744Z,952.15
2019-03-25T07:01:45.729Z,952.14
2019-03-25T07:02:45.711Z,952.07
2019-03-25T07:03:45.698Z,952.06
2019-03-25T07:04:45.678Z,952.07
2019-03-25T07:05:45.662Z,952.07
2019-03-25T07:06:45.646Z,952.07
2019-03-25T07:07:45.631Z,952.03
2019-03-25T07:08:45.614Z,952.05
2019-03-25T07:09:45.598Z,952.01
2019-03-25T07:10:45.580Z,952.1
2019-03-25T07:11:45.565Z,952.03
2019-03-25T07:12:45.548Z,952.03
2019-03-25T07:13:45.531Z,952.08
2019-03-25T07:14:45.516Z,952.05
2019-03-25T07:15:45.499Z,952.07
2019-03-25T07:16:45.481Z,952.03
2019-03-25T07:17:45.465Z,952.1
2019-03-25T07:18:45.456Z,952.05
2019-03-25T07:19:45.432Z,952.1
2019-03-25T07:20:45.415Z,952.05
2019-03-25T07:21:45.399Z,952.12
2019-03-25T07:22:45.382Z,952.1
2019-03-25T07:23:45.367Z,952.12
2019-03-25T07:24:45.349Z,952.19
2019-03-25T07:25:45.339Z,952.2
2019-03-25T07:26:45.317Z,952.23
2019-03-25T07:27:45.299Z,952.2
2019-03-25T07:28:45.286Z,952.22
2019-03-25T07:29:45.267Z,952.24
2019-03-25T07:30:45.253Z,952.21
2019-03-25T07:31:45.236Z,952.15
2019-03-25T07:32:45.218Z,952.25
2019-03-25T07:33:45.201Z,952.23
2019-03-25T07:34:45.185Z,952.24
2019-03-25T07:35:45.168Z,952.2
2019-03-25T07:36:45.152Z,952.23
2019-03-25T07:37:45.135Z,952.18
2019-03-25T07:38:45.121Z,952.16
2019-03-25T07:39:45.104Z,952.15
2019-03-25T07:40:45.087Z,952.09
2019-03-25T07:41:45.071Z,952.09
2019-03-25T07:42:45.054Z,952.1
2019-03-25T07:43:45.040Z,952.15
2019-03-25T07:44:45.022Z,952.07
2019-03-25T07:45:45.005Z,952.14
2019-03-25T07:46:44.993Z,952.06
2019-03-25T07:47:44.972Z,952.15
2019-03-25T07:48:44.957Z,952.12
2019-03-25T07:49:44.940Z,952.12
2019-03-25T07:50:44.926Z,952.13
2019-03-25T07:51:44.908Z,952.17
2019-03-25T07:52:44.895Z,952.17
2019-03-25T07:53:44.878Z,952.12
2019-03-25T07:54:44.863Z,952.13
2019-03-25T07:55:44.843Z,952.12
2019-03-25T07:56:44.828Z,952.16
2019-03-25T07:57:48.392Z,952.15
2019-03-25T07:58:44.795Z,952.18
2019-03-25T07:59:44.778Z,952.18
2019-03-25T08:00:44.769Z,952.17
2019-03-25T08:01:44.744Z,952.13
2019-03-25T08:02:44.739Z,952.18
2019-03-25T08:03:44.713Z,952.17
2019-03-25T08:04:44.746Z,952.15
2019-03-25T08:05:44.679Z,952.18
2019-03-25T08:06:44.663Z,952.11
2019-03-25T08:07:44.653Z,952.18
2019-03-25T08:08:44.663Z,952.16
2019-03-25T08:09:44.614Z,952.17
2019-03-25T08:10:44.627Z,952.18
2019-03-25T08:11:44.586Z,952.18
2019-03-25T08:12:44.586Z,952.14
2019-03-25T08:13:44.549Z,952.2
2019-03-25T08:14:44.546Z,952.13
2019-03-25T08:15:44.536Z,952.16
2019-03-25T08:16:44.499Z,952.14
2019-03-25T08:17:44.482Z,952.25
2019-03-25T08:18:44.466Z,952.17
2019-03-25T08:19:44.449Z,952.23
2019-03-25T08:20:44.432Z,952.27
2019-03-25T08:21:44.417Z,952.21
2019-03-25T08:22:44.399Z,952.23
2019-03-25T08:23:44.384Z,952.24
2019-03-25T08:24:44.368Z,952.2
2019-03-25T08:25:44.351Z,952.3
2019-03-25T08:26:44.333Z,952.24
2019-03-25T08:27:44.317Z,952.23
2019-03-25T08:28:44.304Z,952.28
2019-03-25T08:29:44.284Z,952.21
2019-03-25T08:30:44.269Z,952.24
2019-03-25T08:31:44.264Z,952.29
2019-03-25T08:32:44.235Z,952.28
2019-03-25T08:33:44.217Z,952.22
2019-03-25T08:34:44.200Z,952.33
2019-03-25T08:35:44.184Z,952.32
2019-03-25T08:36:44.167Z,952.35
2019-03-25T08:37:44.150Z,952.39
2019-03-25T08:38:44.134Z,952.37
2019-03-25T08:39:44.119Z,952.45
2019-03-25T08:40:44.103Z,952.35
2019-03-25T08:41:44.085Z,952.31
2019-03-25T08:42:44.069Z,952.43
2019-03-25T08:43:44.052Z,952.49
2019-03-25T08:44:44.036Z,952.5
2019-03-25T08:45:44.018Z,952.47
2019-03-25T08:46:44.002Z,952.5
2019-03-25T08:47:43.989Z,952.46
2019-03-25T08:48:43.968Z,952.46
2019-03-25T08:49:43.951Z,952.6
2019-03-25T08:50:43.934Z,952.55
2019-03-25T08:51:43.918Z,952.54
2019-03-25T08:52:43.901Z,952.47
2019-03-25T08:53:43.884Z,952.5
2019-03-25T08:54:43.869Z,952.47
2019-03-25T08:55:43.853Z,952.5
2019-03-25T08:56:43.834Z,952.52
2019-03-25T08:57:43.818Z,952.54
2019-03-25T08:58:43.801Z,952.53
2019-03-25T08:59:43.784Z,952.55
2019-03-25T09:00:43.766Z,952.55
2019-03-25T09:01:43.750Z,952.65
2019-03-25T09:02:43.734Z,952.59
2019-03-25T09:03:43.716Z,952.68
2019-03-25T09:04:43.702Z,952.68
2019-03-25T09:05:43.685Z,952.66
2019-03-25T09:06:43.665Z,952.66
2019-03-25T09:07:43.648Z,952.67
2019-03-25T09:08:43.633Z,952.7
2019-03-25T09:09:43.617Z,952.68
2019-03-25T09:10:43.599Z,952.75
2019-03-25T09:11:43.582Z,952.68
2019-03-25T09:12:43.565Z,952.64
2019-03-25T09:13:43.548Z,952.65
2019-03-25T09:14:43.534Z,952.69
2019-03-25T09:15:43.515Z,952.71
2019-03-25T09:16:43.499Z,952.69
2019-03-25T09:17:43.483Z,952.65
2019-03-25T09:18:43.466Z,952.62
2019-03-25T09:19:43.450Z,952.65
2019-03-25T09:20:43.437Z,952.64
2019-03-25T09:21:43.417Z,952.64
2019-03-25T09:22:43.401Z,952.61
2019-03-25T09:23:43.385Z,952.63
2019-03-25T09:24:43.369Z,952.62
2019-03-25T09:25:43.356Z,952.6
2019-03-25T09:26:43.341Z,952.61
2019-03-25T09:27:43.320Z,952.63
2019-03-25T09:28:43.315Z,952.67
2019-03-25T09:29:43.291Z,952.64
2019-03-25T09:30:43.272Z,952.65
2019-03-25T09:31:43.258Z,952.63
2019-03-25T09:32:43.239Z,952.59
2019-03-25T09:33:43.222Z,952.67
2019-03-25T09:34:43.207Z,952.56
2019-03-25T09:35:43.195Z,952.59
2019-03-25T09:36:43.174Z,952.62
2019-03-25T09:37:43.162Z,952.59
2019-03-25T09:38:43.144Z,952.64
2019-03-25T09:39:43.126Z,952.64
2019-03-25T09:40:43.109Z,952.67
2019-03-25T09:41:43.101Z,952.66
2019-03-25T09:42:43.077Z,952.72
2019-03-25T09:43:43.060Z,952.68
2019-03-25T09:44:43.044Z,952.69
2019-03-25T09:45:43.029Z,952.68
2019-03-25T09:46:43.012Z,952.66
2019-03-25T09:47:42.997Z,952.69
2019-03-25T09:48:42.980Z,952.69
2019-03-25T09:49:42.967Z,952.71
2019-03-25T09:50:42.950Z,952.63
2019-03-25T09:51:42.932Z,952.69
2019-03-25T09:52:42.916Z,952.74
2019-03-25T09:53:42.900Z,952.72
2019-03-25T09:54:42.883Z,952.7
2019-03-25T09:55:42.868Z,952.71
2019-03-25T09:56:42.852Z,952.68
2019-03-25T09:57:42.836Z,952.74
2019-03-25T09:58:42.821Z,952.67
2019-03-25T09:59:42.807Z,952.75
2019-03-25T10:00:42.790Z,952.68
2019-03-25T10:01:42.773Z,952.68
2019-03-25T10:02:42.758Z,952.67
2019-03-25T10:03:42.754Z,952.65
2019-03-25T10:04:42.728Z,952.7
2019-03-25T10:05:42.712Z,952.75
2019-03-25T10:06:42.701Z,952.71
2019-03-25T10:07:42.682Z,952.74
2019-03-25T10:08:42.667Z,952.66
2019-03-25T10:09:42.652Z,952.73
2019-03-25T10:10:42.638Z,952.72
2019-03-25T10:11:42.622Z,952.77
2019-03-25T10:12:42.607Z,952.72
2019-03-25T10:13:42.592Z,952.69
2019-03-25T10:14:42.578Z,952.68
2019-03-25T10:15:42.562Z,952.73
2019-03-25T10:16:42.550Z,952.78
2019-03-25T10:17:42.534Z,952.74
2019-03-25T10:18:42.519Z,952.76
2019-03-25T10:19:42.504Z,952.79
2019-03-25T10:20:42.489Z,952.82
2019-03-25T10:21:42.475Z,952.73
2019-03-25T10:22:42.461Z,952.76
2019-03-25T10:23:42.450Z,952.77
2019-03-25T10:24:42.435Z,952.79
2019-03-25T10:25:42.415Z,952.75
2019-03-25T10:26:42.400Z,952.75
2019-03-25T10:27:42.385Z,952.75
2019-03-25T10:28:48.270Z,952.71
2019-03-25T10:29:42.362Z,952.71
2019-03-25T10:30:42.343Z,952.7
2019-03-25T10:31:42.325Z,952.72
2019-03-25T10:32:42.311Z,952.72
2019-03-25T10:33:42.299Z,952.79
2019-03-25T10:34:42.284Z,952.72
2019-03-25T10:35:42.266Z,952.71
2019-03-25T10:36:42.251Z,952.73
2019-03-25T10:37:42.236Z,952.73
2019-03-25T10:38:42.221Z,952.73
2019-03-25T10:39:42.206Z,952.69
2019-03-25T10:40:42.191Z,952.72
2019-03-25T10:41:42.177Z,952.71
2019-03-25T10:42:42.161Z,952.77
2019-03-25T10:43:42.147Z,952.71
2019-03-25T10:44:42.134Z,952.63
2019-03-25T10:45:42.116Z,952.71
2019-03-25T10:46:42.112Z,952.68
2019-03-25T10:47:42.086Z,952.7
2019-03-25T10:48:42.071Z,952.67
2019-03-25T10:49:42.057Z,952.73
2019-03-25T10:50:42.042Z,952.68
2019-03-25T10:51:42.027Z,952.74
2019-03-25T10:52:42.011Z,952.62
2019-03-25T10:53:41.998Z,952.61
2019-03-25T10:54:42.081Z,952.54
2019-03-25T10:55:41.968Z,952.49
2019-03-25T10:56:48.749Z,952.59
2019-03-25T10:57:41.941Z,952.55
2019-03-25T10:58:41.923Z,952.6
2019-03-25T10:59:41.910Z,952.56
2019-03-25T11:00:41.894Z,952.58
2019-03-25T11:01:41.880Z,952.62
2019-03-25T11:02:41.868Z,952.57
2019-03-25T11:03:41.851Z,952.57
2019-03-25T11:04:41.838Z,952.56
2019-03-25T11:05:41.823Z,952.58
2019-03-25T11:06:41.814Z,952.63
2019-03-25T11:08:41.780Z,952.59
2019-03-25T11:09:41.767Z,952.57
2019-03-25T11:10:41.751Z,952.55
2019-03-25T11:11:41.738Z,952.65
2019-03-25T11:12:41.725Z,952.59
2019-03-25T11:13:41.710Z,952.55
2019-03-25T11:14:41.695Z,952.53
2019-03-25T11:15:41.686Z,952.59
2019-03-25T11:16:41.668Z,952.55
2019-03-25T11:17:41.655Z,952.47
2019-03-25T11:18:41.639Z,952.47
2019-03-25T11:19:41.666Z,952.53
2019-03-25T11:20:41.612Z,952.47
2019-03-25T11:21:41.601Z,952.48
2019-03-25T11:22:41.584Z,952.45
2019-03-25T11:23:41.571Z,952.45
2019-03-25T11:24:41.557Z,952.48
2019-03-25T11:25:41.542Z,952.51
2019-03-25T11:26:41.529Z,952.48
2019-03-25T11:27:41.516Z,952.48
2019-03-25T11:28:41.502Z,952.4
2019-03-25T11:29:41.487Z,952.48
2019-03-25T11:30:41.475Z,952.49
2019-03-25T11:31:41.460Z,952.5
2019-03-25T11:32:41.446Z,952.48
2019-03-25T11:33:41.432Z,952.42
2019-03-25T11:34:41.423Z,952.4
2019-03-25T11:35:41.408Z,952.36
2019-03-25T11:36:41.390Z,952.35
2019-03-25T11:37:41.376Z,952.46
2019-03-25T11:38:41.363Z,952.46
2019-03-25T11:39:41.350Z,952.44
2019-03-25T11:40:41.336Z,952.4
2019-03-25T11:41:41.322Z,952.36
2019-03-25T11:42:41.308Z,952.39
2019-03-25T11:43:41.295Z,952.31
2019-03-25T11:44:41.295Z,952.3
2019-03-25T11:45:41.270Z,952.35
2019-03-25T11:46:41.254Z,952.37
2019-03-25T11:47:41.241Z,952.35
2019-03-25T11:48:41.227Z,952.29
2019-03-25T11:49:41.214Z,952.27
2019-03-25T11:50:41.200Z,952.27
2019-03-25T11:51:41.187Z,952.21
2019-03-25T11:52:41.223Z,952.26
2019-03-25T11:53:41.167Z,952.26
2019-03-25T11:54:41.146Z,952.29
2019-03-25T11:55:41.132Z,952.22
2019-03-25T11:56:41.119Z,952.24
2019-03-25T11:57:41.106Z,952.3
2019-03-25T11:58:41.091Z,952.24
2019-03-25T11:59:41.079Z,952.21
2019-03-25T12:00:41.067Z,952.22
2019-03-25T12:01:41.051Z,952.21
2019-03-25T12:02:41.043Z,952.18
2019-03-25T12:03:41.024Z,952.14
2019-03-25T12:04:41.021Z,952.13
2019-03-25T12:05:40.996Z,952.19
2019-03-25T12:06:40.983Z,952.15
2019-03-25T12:07:40.970Z,952.19
2019-03-25T12:08:40.957Z,952.18
2019-03-25T12:09:41.643Z,952.12
2019-03-25T12:10:40.928Z,952.15
2019-03-25T12:11:40.915Z,952.19
2019-03-25T12:12:40.901Z,952.15
2019-03-25T12:13:40.889Z,952.16
2019-03-25T12:14:40.874Z,952.09
2019-03-25T12:15:40.860Z,952.11
2019-03-25T12:16:40.853Z,952.07
2019-03-25T12:17:40.835Z,952.12
2019-03-25T12:18:40.821Z,952.09
2019-03-25T12:19:40.810Z,952.02
2019-03-25T12:20:40.792Z,952.1
2019-03-25T12:21:40.780Z,952.14
2019-03-25T12:22:40.768Z,952.11
2019-03-25T12:23:40.753Z,952.11
2019-03-25T12:24:40.740Z,952.09
2019-03-25T12:25:40.727Z,952.06
2019-03-25T12:26:40.715Z,952.01
2019-03-25T12:27:40.721Z,951.99
2019-03-25T12:28:40.689Z,951.93
2019-03-25T12:29:40.680Z,951.99
2019-03-25T12:30:40.669Z,951.98
2019-03-25T12:31:40.655Z,951.95